Time;durP1;ratioP1;P1;durP2;ratioP2;P2;SDS_P1;SDS_P2;PMS_P1;PMS_P2;Temp;Humidity;BMP_temperature;BMP_pressure;BME280_temperature;BME280_humidity;BME280_pressure;Samples;Min_cycle;Max_cycle;Signal;HPM_P1;HPM_P2
2023/01/11 00:02:06;;;;;;;;;;;;;;;12.86;90.31;100018.25;7357361;19;19963;-68
2023/01/11 00:04:33;;;;;;;;;;;;;;;12.83;89.95;100029.19;7362245;19;20463;-69
2023/01/11 00:07:00;;;;;;;;;;;;;;;12.85;90.02;100024.50;7356660;19;19929;-68
2023/01/11 00:09:27;;;;;;;;;;;;;;;12.82;89.51;100024.09;7358695;19;19919;-67
2023/01/11 00:11:54;;;;;;;;;;;;;;;12.81;89.49;100039.09;7360973;19;20321;-68
2023/01/11 00:14:21;;;;;;;;;;;;;;;12.78;89.50;100043.94;7357209;19;19925;-68
2023/01/11 00:16:48;;;;;;;;;;;;;;;12.77;89.11;100042.31;7358853;19;20026;-68
2023/01/11 00:19:15;;;;;;;;;;;;;;;12.77;89.35;100044.94;7359277;19;20269;-68
2023/01/11 00:21:41;;;;;;;;;;;;;;;12.74;89.07;100047.97;7362027;19;19960;-68
2023/01/11 00:24:08;;;;;;;;;;;;;;;12.71;88.50;100051.78;7367493;19;19955;-68
2023/01/11 00:26:35;;;;;;;;;;;;;;;12.71;88.78;100054.41;7365725;19;19946;-68
2023/01/11 00:29:02;;;;;;;;;;;;;;;12.74;89.24;100063.81;7365037;19;19984;-68
2023/01/11 00:31:29;;;;;;;;;;;;;;;12.76;88.97;100073.16;7365439;19;19939;-68
2023/01/11 00:33:56;;;;;;;;;;;;;;;12.79;88.87;100082.53;7365086;19;19961;-68
2023/01/11 00:36:23;;;;;;;;;;;;;;;12.81;89.06;100085.81;7362989;19;19943;-68
2023/01/11 00:38:53;;;;;;;;;;;;;;;12.82;89.05;100080.34;7363947;19;19923;-68
2023/01/11 00:49:10;;;;;;;;;;;;;;;12.76;88.72;100090.81;7366514;19;19963;-67
2023/01/11 00:51:37;;;;;;;;;;;;;;;12.76;88.78;100101.38;7364715;19;19994;-69
2023/01/11 00:54:04;;;;;;;;;;;;;;;12.77;88.95;100103.84;7365568;19;19927;-69
2023/01/11 00:56:31;;;;;;;;;;;;;;;12.80;88.82;100092.06;7367283;19;19953;-68
2023/01/11 00:58:58;;;;;;;;;;;;;;;12.78;88.34;100094.94;7367570;19;19968;-67
2023/01/11 01:01:25;;;;;;;;;;;;;;;12.79;88.20;100098.38;7366029;19;19923;-68
2023/01/11 01:03:52;;;;;;;;;;;;;;;12.75;87.26;100097.91;7366075;19;19927;-68
2023/01/11 01:06:19;;;;;;;;;;;;;;;12.74;87.47;100101.59;7362817;19;20006;-69
2023/01/11 01:08:46;;;;;;;;;;;;;;;12.78;87.44;100097.56;7365685;19;20290;-68
2023/01/11 01:11:13;;;;;;;;;;;;;;;12.79;87.20;100091.28;7367209;19;20010;-69
2023/01/11 01:16:18;;;;;;;;;;;;;;;12.74;86.78;100103.41;7364648;19;19952;-68
2023/01/11 01:18:45;;;;;;;;;;;;;;;12.71;87.27;100101.13;7366640;19;19940;-67
2023/01/11 01:21:12;;;;;;;;;;;;;;;12.68;87.97;100104.97;7364815;19;19955;-67
2023/01/11 01:23:39;;;;;;;;;;;;;;;12.67;87.91;100107.78;7365699;19;19922;-69
2023/01/11 01:26:06;;;;;;;;;;;;;;;12.63;88.59;100114.41;7363617;19;19922;-67
2023/01/11 01:28:35;;;;;;;;;;;;;;;12.57;87.43;100118.63;7364448;19;20393;-67
2023/01/11 01:31:02;;;;;;;;;;;;;;;12.56;87.55;100119.59;7365544;19;20057;-68
2023/01/11 01:33:29;;;;;;;;;;;;;;;12.52;87.20;100130.72;7362974;19;19930;-68
2023/01/11 01:35:56;;;;;;;;;;;;;;;12.47;87.03;100130.44;7363872;19;20367;-68
2023/01/11 01:38:23;;;;;;;;;;;;;;;12.41;86.69;100138.09;7364120;19;20015;-68
2023/01/11 01:40:51;;;;;;;;;;;;;;;12.36;86.43;100147.53;7358528;19;20281;-68
2023/01/11 01:43:18;;;;;;;;;;;;;;;12.31;86.67;100149.91;7365534;19;20234;-68
2023/01/11 01:45:48;;;;;;;;;;;;;;;12.25;87.00;100159.34;7362184;19;19934;-71
2023/01/11 01:48:17;;;;;;;;;;;;;;;12.21;86.80;100166.00;7364761;19;20384;-69
2023/01/11 01:50:47;;;;;;;;;;;;;;;12.15;86.36;100163.25;7363372;19;19922;-68
2023/01/11 01:53:18;;;;;;;;;;;;;;;12.17;88.00;100171.81;7363889;19;19919;-68
2023/01/11 01:55:49;;;;;;;;;;;;;;;12.15;88.02;100161.44;7362415;19;19919;-68
2023/01/11 01:58:18;;;;;;;;;;;;;;;12.11;87.32;100162.78;7364712;19;20242;-67
2023/01/11 02:00:45;;;;;;;;;;;;;;;12.08;86.87;100172.88;7364418;19;20256;-68
2023/01/11 02:03:18;;;;;;;;;;;;;;;12.05;86.93;100181.97;7363386;19;19983;-68
2023/01/11 02:05:46;;;;;;;;;;;;;;;12.06;87.54;100185.41;7363662;19;19925;-68
2023/01/11 02:08:16;;;;;;;;;;;;;;;12.04;87.03;100190.06;7363612;19;19926;-68
2023/01/11 02:10:43;;;;;;;;;;;;;;;12.02;87.54;100195.50;7362204;19;20447;-68
2023/01/11 02:13:13;;;;;;;;;;;;;;;12.00;87.31;100200.97;7363753;19;19997;-68
2023/01/11 02:15:40;;;;;;;;;;;;;;;11.96;86.95;100212.84;7360193;19;20014;-67
2023/01/11 02:18:10;;;;;;;;;;;;;;;11.91;87.01;100209.13;7361829;19;19923;-68
2023/01/11 02:20:47;;;;;;;;;;;;;;;11.90;87.90;100220.66;7361619;19;20471;-67
2023/01/11 02:23:15;;;;;;;;;;;;;;;11.92;88.14;100226.56;7364401;19;19939;-68
2023/01/11 02:25:52;;;;;;;;;;;;;;;11.91;88.12;100219.66;7363200;19;19958;-68
2023/01/11 02:28:29;;;;;;;;;;;;;;;11.89;88.74;100225.09;7361901;19;19940;-68
2023/01/11 02:30:57;;;;;;;;;;;;;;;11.90;89.49;100232.00;7363197;19;19944;-68
2023/01/11 02:33:24;;;;;;;;;;;;;;;11.89;88.78;100233.00;7362776;19;20812;-68
2023/01/11 02:36:01;;;;;;;;;;;;;;;11.90;88.40;100231.19;7360309;19;19930;-69
2023/01/11 02:38:32;;;;;;;;;;;;;;;11.86;87.77;100235.19;7363524;19;20578;-68
2023/01/11 02:40:59;;;;;;;;;;;;;;;11.84;87.89;100234.53;7359034;19;19919;-68
2023/01/11 02:46:14;;;;;;;;;;;;;;;11.82;88.41;100241.81;7364154;19;19926;-68
2023/01/11 02:48:48;;;;;;;;;;;;;;;11.79;87.79;100240.31;7362430;19;19945;-68
2023/01/11 02:51:18;;;;;;;;;;;;;;;11.79;87.82;100244.78;7359308;19;19933;-69
2023/01/11 02:53:50;;;;;;;;;;;;;;;11.77;88.86;100242.34;7363151;19;19927;-68
2023/01/11 02:56:20;;;;;;;;;;;;;;;11.75;88.63;100252.22;7366639;19;19922;-69
2023/01/11 02:58:49;;;;;;;;;;;;;;;11.71;87.75;100255.34;7363424;19;20430;-69
2023/01/11 03:01:17;;;;;;;;;;;;;;;11.69;87.57;100258.16;7362754;19;20303;-68
2023/01/11 03:03:44;;;;;;;;;;;;;;;11.63;87.50;100269.38;7360176;19;19919;-68
2023/01/11 03:06:14;;;;;;;;;;;;;;;11.62;88.56;100266.94;7361942;19;19919;-69
2023/01/11 03:08:51;;;;;;;;;;;;;;;11.63;89.21;100274.66;7361905;19;20258;-69
2023/01/11 03:14:03;;;;;;;;;;;;;;;11.61;89.02;100275.81;7362879;19;20551;-68
2023/01/11 03:16:39;;;;;;;;;;;;;;;11.61;88.74;100281.09;7359164;19;20522;-68
2023/01/11 03:19:09;;;;;;;;;;;;;;;11.58;88.76;100280.44;7362257;19;19919;-69
2023/01/11 03:21:37;;;;;;;;;;;;;;;11.56;89.06;100285.06;7358373;19;19922;-68
2023/01/11 03:24:13;;;;;;;;;;;;;;;11.57;89.84;100286.72;7360328;19;19919;-69
2023/01/11 03:26:48;;;;;;;;;;;;;;;11.57;89.84;100278.81;7359356;19;19927;-69
2023/01/11 03:29:16;;;;;;;;;;;;;;;11.57;89.77;100284.09;7359497;19;19960;-69
2023/01/11 03:31:47;;;;;;;;;;;;;;;11.53;89.39;100280.13;7361833;19;19930;-69
2023/01/11 03:34:18;;;;;;;;;;;;;;;11.52;89.14;100280.31;7362058;19;19923;-68
2023/01/11 03:36:45;;;;;;;;;;;;;;;11.51;89.83;100282.13;7358107;19;20444;-69
2023/01/11 03:39:12;;;;;;;;;;;;;;;11.47;89.26;100287.94;7358608;19;19926;-67
2023/01/11 03:41:40;;;;;;;;;;;;;;;11.46;89.08;100292.38;7360561;19;19915;-70
2023/01/11 03:44:09;;;;;;;;;;;;;;;11.45;89.11;100293.34;7362393;19;19927;-69
2023/01/11 03:46:37;;;;;;;;;;;;;;;11.44;88.19;100299.63;7362840;19;20257;-68
2023/01/11 03:49:07;;;;;;;;;;;;;;;11.42;88.57;100301.63;7359387;19;20248;-68
2023/01/11 03:51:39;;;;;;;;;;;;;;;11.38;87.95;100300.28;7360325;19;20413;-68
2023/01/11 03:54:07;;;;;;;;;;;;;;;11.37;88.14;100311.84;7358816;19;19919;-68
2023/01/11 03:56:38;;;;;;;;;;;;;;;11.34;88.54;100306.91;7359807;19;19918;-69
2023/01/11 03:59:05;;;;;;;;;;;;;;;11.32;89.30;100308.91;7358835;19;19926;-69
2023/01/11 04:01:32;;;;;;;;;;;;;;;11.30;89.14;100320.59;7361500;19;19919;-68
2023/01/11 04:03:59;;;;;;;;;;;;;;;11.29;89.28;100314.50;7357912;19;19933;-69
2023/01/11 04:06:25;;;;;;;;;;;;;;;11.27;89.82;100326.19;7359650;19;19919;-68
2023/01/11 04:08:52;;;;;;;;;;;;;;;11.24;89.30;100326.53;7358580;19;19979;-68
2023/01/11 04:11:19;;;;;;;;;;;;;;;11.22;89.82;100334.63;7360469;19;20036;-68
2023/01/11 04:13:46;;;;;;;;;;;;;;;11.24;90.34;100326.53;7360594;19;19990;-68
2023/01/11 04:16:13;;;;;;;;;;;;;;;11.22;89.95;100321.44;7356737;19;19918;-68
2023/01/11 04:18:40;;;;;;;;;;;;;;;11.17;89.51;100328.22;7357412;19;20515;-69
2023/01/11 04:21:06;;;;;;;;;;;;;;;11.12;89.62;100334.78;7356366;19;19933;-68
2023/01/11 04:23:33;;;;;;;;;;;;;;;11.12;89.74;100336.63;7360249;19;20558;-69
2023/01/11 04:26:00;;;;;;;;;;;;;;;11.11;89.80;100333.16;7357507;19;19925;-68
2023/01/11 04:28:27;;;;;;;;;;;;;;;11.10;89.66;100346.47;7359714;19;19930;-70
2023/01/11 04:30:53;;;;;;;;;;;;;;;11.10;89.09;100341.22;7360079;19;20721;-68
2023/01/11 04:33:20;;;;;;;;;;;;;;;11.08;89.15;100351.91;7358061;19;19937;-68
2023/01/11 04:35:48;;;;;;;;;;;;;;;11.08;89.11;100345.81;7358005;19;19923;-69
2023/01/11 04:38:15;;;;;;;;;;;;;;;11.06;89.30;100351.28;7361291;19;19962;-68
2023/01/11 04:40:42;;;;;;;;;;;;;;;11.04;89.17;100347.97;7357665;19;19927;-69
2023/01/11 04:43:09;;;;;;;;;;;;;;;11.02;89.12;100349.94;7361248;19;19910;-68
2023/01/11 04:45:35;;;;;;;;;;;;;;;11.00;89.34;100361.63;7356358;19;20368;-70
2023/01/11 04:48:03;;;;;;;;;;;;;;;11.01;89.50;100361.47;7360800;19;19986;-70
2023/01/11 04:50:29;;;;;;;;;;;;;;;11.01;89.81;100363.28;7358880;19;19988;-68
2023/01/11 04:52:57;;;;;;;;;;;;;;;10.99;90.47;100363.44;7358065;19;20006;-69
2023/01/11 04:55:24;;;;;;;;;;;;;;;10.97;90.32;100368.03;7358709;19;19979;-69
2023/01/11 04:57:51;;;;;;;;;;;;;;;10.96;89.82;100373.50;7358431;19;19926;-69
2023/01/11 05:00:18;;;;;;;;;;;;;;;10.93;89.43;100371.19;7359177;19;19950;-68
2023/01/11 05:02:45;;;;;;;;;;;;;;;10.93;89.85;100369.38;7357975;19;19934;-69
2023/01/11 05:05:11;;;;;;;;;;;;;;;10.91;90.06;100370.53;7358401;19;19946;-69
2023/01/11 05:07:39;;;;;;;;;;;;;;;10.89;90.66;100372.50;7365222;19;19919;-69
2023/01/11 05:10:06;;;;;;;;;;;;;;;10.89;90.53;100369.88;7364004;19;19942;-68
2023/01/11 05:12:33;;;;;;;;;;;;;;;10.88;91.27;100368.22;7364670;19;19921;-69
2023/01/11 05:15:00;;;;;;;;;;;;;;;10.85;90.85;100371.19;7367369;19;19966;-68
2023/01/11 05:17:27;;;;;;;;;;;;;;;10.81;90.09;100372.53;7365553;19;19934;-68
2023/01/11 05:19:54;;;;;;;;;;;;;;;10.75;89.73;100371.38;7366198;19;19966;-69
2023/01/11 05:22:20;;;;;;;;;;;;;;;10.72;90.04;100385.66;7362212;19;19923;-68
2023/01/11 05:24:47;;;;;;;;;;;;;;;10.71;89.98;100388.47;7365538;19;19927;-68
2023/01/11 05:27:14;;;;;;;;;;;;;;;10.68;89.73;100394.88;7366480;19;20261;-68
2023/01/11 05:29:42;;;;;;;;;;;;;;;10.66;89.83;100393.41;7366017;19;19923;-69
2023/01/11 05:32:11;;;;;;;;;;;;;;;10.61;89.07;100396.53;7363851;19;19930;-69
2023/01/11 05:34:37;;;;;;;;;;;;;;;10.59;89.43;100401.13;7365152;19;19930;-69
2023/01/11 05:37:04;;;;;;;;;;;;;;;10.57;89.35;100402.25;7361708;19;19929;-68
2023/01/11 05:39:31;;;;;;;;;;;;;;;10.59;90.04;100406.41;7363054;19;19972;-68
2023/01/11 05:41:58;;;;;;;;;;;;;;;10.57;89.99;100407.53;7366285;19;19945;-69
2023/01/11 05:47:03;;;;;;;;;;;;;;;10.50;89.26;100404.75;7364778;19;19927;-68
2023/01/11 05:49:30;;;;;;;;;;;;;;;10.45;89.15;100417.56;7364381;19;19914;-69
2023/01/11 05:51:56;;;;;;;;;;;;;;;10.47;89.91;100410.31;7361569;19;19915;-68
2023/01/11 05:54:23;;;;;;;;;;;;;;;10.44;89.36;100415.09;7362489;19;19930;-69
2023/01/11 05:56:50;;;;;;;;;;;;;;;10.43;89.72;100400.28;7362718;19;19934;-69
2023/01/11 05:59:17;;;;;;;;;;;;;;;10.41;89.41;100408.34;7362852;19;19944;-69
2023/01/11 06:01:43;;;;;;;;;;;;;;;10.43;89.87;100422.16;7363453;19;19923;-67
2023/01/11 06:04:10;;;;;;;;;;;;;;;10.41;89.81;100418.88;7364030;19;19955;-68
2023/01/11 06:06:37;;;;;;;;;;;;;;;10.39;89.46;100426.09;7361236;19;19933;-68
2023/01/11 06:09:04;;;;;;;;;;;;;;;10.41;89.72;100439.91;7362502;19;19951;-68
2023/01/11 06:11:31;;;;;;;;;;;;;;;10.39;90.05;100439.25;7364060;19;19919;-68
2023/01/11 06:13:58;;;;;;;;;;;;;;;10.38;89.40;100457.81;7364153;19;20227;-68
2023/01/11 06:16:25;;;;;;;;;;;;;;;10.36;89.50;100457.16;7362246;19;19923;-68
2023/01/11 06:18:52;;;;;;;;;;;;;;;10.31;88.93;100464.72;7361804;19;19926;-68
2023/01/11 06:21:20;;;;;;;;;;;;;;;10.28;89.29;100460.56;7359566;19;19930;-68
2023/01/11 06:23:49;;;;;;;;;;;;;;;10.30;90.00;100461.25;7360820;19;19927;-68
2023/01/11 06:26:19;;;;;;;;;;;;;;;10.32;90.25;100448.75;7361103;19;19918;-69
2023/01/11 06:28:47;;;;;;;;;;;;;;;10.35;90.66;100458.97;7361993;19;19974;-69
2023/01/11 06:31:14;;;;;;;;;;;;;;;10.35;90.07;100458.97;7363903;19;19933;-69
2023/01/11 06:33:44;;;;;;;;;;;;;;;10.34;90.10;100454.69;7360867;19;20342;-69
2023/01/11 06:36:12;;;;;;;;;;;;;;;10.35;89.91;100464.22;7359849;19;19929;-68
2023/01/11 06:38:40;;;;;;;;;;;;;;;10.38;90.46;100463.06;7361876;19;19923;-68
2023/01/11 06:41:09;;;;;;;;;;;;;;;10.39;90.70;100464.72;7359214;19;21606;-69
2023/01/11 06:43:39;;;;;;;;;;;;;;;10.45;91.28;100464.91;7365409;19;19929;-67
2023/01/11 06:46:10;;;;;;;;;;;;;;;10.44;89.94;100462.44;7362591;19;19922;-69
2023/01/11 06:48:37;;;;;;;;;;;;;;;10.45;89.68;100458.81;7364070;19;20562;-68
2023/01/11 06:51:04;;;;;;;;;;;;;;;10.41;88.65;100465.38;7360314;19;20354;-71
2023/01/11 06:53:31;;;;;;;;;;;;;;;10.47;89.10;100464.72;7362572;19;19933;-69
2023/01/11 06:55:58;;;;;;;;;;;;;;;10.45;87.95;100474.59;7362538;19;19925;-68
2023/01/11 06:58:26;;;;;;;;;;;;;;;10.46;88.16;100468.34;7363623;19;19959;-68
2023/01/11 07:00:55;;;;;;;;;;;;;;;10.41;87.41;100481.16;7360919;19;19926;-68
2023/01/11 07:03:24;;;;;;;;;;;;;;;10.42;87.38;100485.41;7362089;19;19957;-69
2023/01/11 07:05:52;;;;;;;;;;;;;;;10.43;87.72;100484.44;7359224;19;20116;-69
2023/01/11 07:08:19;;;;;;;;;;;;;;;10.44;87.85;100484.28;7359143;19;19946;-69
2023/01/11 07:10:46;;;;;;;;;;;;;;;10.42;87.14;100490.69;7360647;19;19918;-69
2023/01/11 07:13:16;;;;;;;;;;;;;;;10.37;87.02;100485.06;7362040;19;19911;-70
2023/01/11 07:15:44;;;;;;;;;;;;;;;10.37;87.22;100482.44;7362755;19;19957;-69
2023/01/11 07:18:11;;;;;;;;;;;;;;;10.35;87.10;100482.63;7363155;19;19936;-68
2023/01/11 07:20:39;;;;;;;;;;;;;;;10.34;87.71;100488.88;7359620;19;19929;-69
2023/01/11 07:23:06;;;;;;;;;;;;;;;10.32;87.68;100493.44;7359961;19;20284;-68
2023/01/11 07:25:36;;;;;;;;;;;;;;;10.33;87.59;100499.53;7358476;19;19978;-68
2023/01/11 07:28:07;;;;;;;;;;;;;;;10.34;88.02;100504.66;7360781;19;19926;-68
2023/01/11 07:30:43;;;;;;;;;;;;;;;10.32;87.05;100503.97;7361758;19;19998;-68
2023/01/11 07:33:24;;;;;;;;;;;;;;;10.28;86.71;100507.91;7360898;19;19922;-69
2023/01/11 07:35:53;;;;;;;;;;;;;;;10.27;86.97;100519.41;7356140;19;19955;-68
2023/01/11 07:38:25;;;;;;;;;;;;;;;10.24;86.73;100514.47;7359129;19;19919;-69
2023/01/11 07:40:56;;;;;;;;;;;;;;;10.19;86.42;100514.13;7358195;19;19927;-68
2023/01/11 07:43:25;;;;;;;;;;;;;;;10.17;86.41;100508.19;7363338;19;19930;-71
2023/01/11 07:45:56;;;;;;;;;;;;;;;10.15;86.76;100513.59;7362599;19;19982;-69
2023/01/11 07:48:25;;;;;;;;;;;;;;;10.16;87.71;100514.41;7361249;19;19933;-68
2023/01/11 07:50:54;;;;;;;;;;;;;;;10.16;87.94;100520.50;7359968;19;19922;-68
2023/01/11 07:53:25;;;;;;;;;;;;;;;10.20;88.27;100532.38;7358917;19;19923;-67
2023/01/11 07:55:55;;;;;;;;;;;;;;;10.20;88.23;100531.53;7358625;19;20032;-68
2023/01/11 07:58:31;;;;;;;;;;;;;;;10.19;88.43;100519.38;7358500;19;19922;-68
2023/01/11 08:01:02;;;;;;;;;;;;;;;10.16;88.24;100520.50;7360783;19;19973;-69
2023/01/11 08:03:31;;;;;;;;;;;;;;;10.16;87.91;100515.25;7360390;19;19947;-69
2023/01/11 08:06:01;;;;;;;;;;;;;;;10.18;87.65;100513.28;7359086;19;19918;-68
2023/01/11 08:08:33;;;;;;;;;;;;;;;10.21;88.38;100522.66;7358266;19;19957;-69
2023/01/11 08:16:26;;;;;;;;;;;;;;;10.21;87.16;100531.38;7362718;19;19926;-68
2023/01/11 08:18:57;;;;;;;;;;;;;;;10.21;86.90;100531.38;7362867;19;20252;-69
2023/01/11 08:21:24;;;;;;;;;;;;;;;10.25;86.55;100540.63;7361166;19;20639;-68
2023/01/11 08:23:58;;;;;;;;;;;;;;;10.25;86.68;100540.63;7359759;19;20324;-68
2023/01/11 08:26:27;;;;;;;;;;;;;;;10.29;87.29;100543.75;7361467;19;19919;-69
2023/01/11 08:28:55;;;;;;;;;;;;;;;10.33;88.10;100552.94;7361752;19;19947;-71
2023/01/11 08:31:30;;;;;;;;;;;;;;;10.34;87.63;100548.53;7361423;19;19938;-68
2023/01/11 08:34:06;;;;;;;;;;;;;;;10.32;86.84;100556.56;7360091;19;19979;-69
2023/01/11 08:36:40;;;;;;;;;;;;;;;10.29;84.79;100565.59;7360291;19;19951;-68
2023/01/11 08:39:19;;;;;;;;;;;;;;;10.28;84.68;100566.56;7357408;19;19930;-68
2023/01/11 08:42:10;;;;;;;;;;;;;;;10.25;84.15;100572.16;7367413;19;19914;-68
2023/01/11 08:44:54;;;;;;;;;;;;;;;10.21;84.53;100581.31;7363877;19;20250;-69
2023/01/11 08:47:22;;;;;;;;;;;;;;;10.21;84.69;100583.94;7367410;19;19914;-68
2023/01/11 08:49:50;;;;;;;;;;;;;;;10.21;84.99;100589.22;7368096;19;20296;-68
2023/01/11 08:52:25;;;;;;;;;;;;;;;10.26;85.71;100589.56;7366671;19;20388;-69
2023/01/11 08:54:52;;;;;;;;;;;;;;;10.29;85.60;100593.69;7367191;19;19938;-68
2023/01/11 08:57:30;;;;;;;;;;;;;;;10.30;85.49;100597.97;7368234;19;19923;-69
2023/01/11 08:59:57;;;;;;;;;;;;;;;10.29;84.98;100598.97;7366083;19;20265;-68
2023/01/11 09:02:24;;;;;;;;;;;;;;;10.28;84.71;100602.56;7366708;19;19918;-68
2023/01/11 09:04:51;;;;;;;;;;;;;;;10.28;85.03;100600.75;7365112;19;19926;-68
2023/01/11 09:07:19;;;;;;;;;;;;;;;10.31;85.44;100602.25;7366055;19;19934;-67
2023/01/11 09:09:47;;;;;;;;;;;;;;;10.33;85.85;100600.28;7363099;19;19918;-68
2023/01/11 09:12:15;;;;;;;;;;;;;;;10.36;85.91;100601.78;7363072;19;19922;-68
2023/01/11 09:14:46;;;;;;;;;;;;;;;10.33;84.99;100607.34;7364184;19;20494;-68
2023/01/11 09:17:16;;;;;;;;;;;;;;;10.34;85.19;100603.75;7363358;19;19956;-68
2023/01/11 09:19:48;;;;;;;;;;;;;;;10.34;85.24;100599.31;7366997;19;19926;-68
2023/01/11 09:22:17;;;;;;;;;;;;;;;10.30;84.82;100597.97;7362136;19;19927;-69
2023/01/11 09:24:44;;;;;;;;;;;;;;;10.33;85.47;100596.84;7363179;19;19927;-64
2023/01/11 09:27:15;;;;;;;;;;;;;;;10.39;86.22;100604.09;7364675;19;19927;-64
2023/01/11 09:29:45;;;;;;;;;;;;;;;10.41;85.59;100597.72;7365054;19;19922;-63
2023/01/11 09:32:12;;;;;;;;;;;;;;;10.47;85.88;100594.44;7364725;19;20378;-64
2023/01/11 09:34:41;;;;;;;;;;;;;;;10.51;85.37;100595.78;7366237;19;20377;-64
2023/01/11 09:37:13;;;;;;;;;;;;;;;10.56;85.20;100616.34;7359425;19;21734;-65
2023/01/11 09:39:45;;;;;;;;;;;;;;;10.60;84.83;100610.63;7363435;19;19931;-65
2023/01/11 09:42:35;;;;;;;;;;;;;;;10.61;84.41;100617.53;7363174;19;19927;-64
2023/01/11 09:45:10;;;;;;;;;;;;;;;10.61;83.63;100625.44;7362932;19;19921;-63
2023/01/11 09:47:42;;;;;;;;;;;;;;;10.67;85.17;100613.41;7363322;19;19918;-64
2023/01/11 09:50:30;;;;;;;;;;;;;;;10.70;85.23;100610.50;7362159;19;19930;-64
2023/01/11 09:53:08;;;;;;;;;;;;;;;10.71;83.62;100610.34;7361334;19;19926;-64
2023/01/11 09:55:41;;;;;;;;;;;;;;;10.75;84.19;100610.84;7361895;19;20364;-64
2023/01/11 09:58:21;;;;;;;;;;;;;;;10.77;83.66;100619.38;7364267;19;20034;-64
2023/01/11 10:00:54;;;;;;;;;;;;;;;10.82;83.46;100632.09;7364419;19;19918;-64
2023/01/11 10:03:22;;;;;;;;;;;;;;;10.83;82.47;100634.53;7365029;19;19964;-65
2023/01/11 10:05:55;;;;;;;;;;;;;;;10.85;82.20;100635.22;7360701;19;20256;-64
2023/01/11 10:08:38;;;;;;;;;;;;;;;10.84;81.58;100633.56;7363810;19;19938;-64
2023/01/11 10:11:44;;;;;;;;;;;;;;;10.86;81.64;100633.41;7363135;19;19922;-65
2023/01/11 10:14:37;;;;;;;;;;;;;;;10.92;82.63;100630.16;7365309;19;19957;-65
2023/01/11 10:17:40;;;;;;;;;;;;;;;10.93;81.73;100637.84;7363192;19;19926;-64
2023/01/11 10:20:34;;;;;;;;;;;;;;;10.95;81.63;100628.00;7362289;19;19941;-64
2023/01/11 10:23:24;;;;;;;;;;;;;;;11.00;81.45;100635.41;7363532;19;20491;-65
2023/01/11 10:26:15;;;;;;;;;;;;;;;11.05;81.89;100641.84;7358962;19;19915;-64
2023/01/11 10:29:06;;;;;;;;;;;;;;;11.08;80.56;100636.25;7365217;19;19915;-64
2023/01/11 10:43:21;;;;;;;;;;;;;;;11.14;78.96;100643.53;7364272;19;19931;-64
2023/01/11 10:45:53;;;;;;;;;;;;;;;11.16;80.39;100638.09;7362571;19;19991;-64
2023/01/11 10:48:27;;;;;;;;;;;;;;;11.17;78.64;100633.66;7366287;19;19933;-63
2023/01/11 10:51:00;;;;;;;;;;;;;;;11.21;78.89;100635.81;7361912;19;19919;-65
2023/01/11 10:53:31;;;;;;;;;;;;;;;11.24;78.23;100624.94;7362928;19;20270;-64
2023/01/11 10:56:08;;;;;;;;;;;;;;;11.23;77.12;100619.81;7364035;19;20661;-64
2023/01/11 10:58:37;;;;;;;;;;;;;;;11.24;76.65;100617.03;7365128;19;19923;-65
2023/01/11 11:01:11;;;;;;;;;;;;;;;11.30;78.58;100621.66;7362040;19;19926;-65
2023/01/11 11:04:04;;;;;;;;;;;;;;;11.33;77.05;100621.31;7364858;19;19961;-65
2023/01/11 11:09:59;;;;;;;;;;;;;;;11.48;77.39;100603.06;7364133;19;20264;-64
2023/01/11 11:12:29;;;;;;;;;;;;;;;11.60;77.28;100601.75;7364119;19;20531;-65
2023/01/11 11:14:57;;;;;;;;;;;;;;;11.63;76.13;100621.69;7364267;19;20002;-64
2023/01/11 11:17:24;;;;;;;;;;;;;;;11.67;75.51;100633.53;7362111;19;19923;-64
2023/01/11 11:19:52;;;;;;;;;;;;;;;11.66;74.48;100639.81;7363222;19;19927;-65
2023/01/11 11:22:19;;;;;;;;;;;;;;;11.68;75.30;100641.31;7362415;19;20623;-65
2023/01/11 11:24:50;;;;;;;;;;;;;;;11.72;74.16;100647.06;7362326;19;19922;-65
2023/01/11 11:27:18;;;;;;;;;;;;;;;11.75;75.05;100637.03;7362349;19;19945;-64
2023/01/11 11:29:50;;;;;;;;;;;;;;;11.78;73.92;100639.34;7366210;19;19949;-64
2023/01/11 11:32:21;;;;;;;;;;;;;;;11.81;73.37;100635.53;7363026;19;20390;-65
2023/01/11 11:34:50;;;;;;;;;;;;;;;11.82;73.66;100643.31;7362373;19;20592;-65
2023/01/11 11:37:20;;;;;;;;;;;;;;;11.85;73.65;100650.03;7356973;19;20258;-64
2023/01/11 11:39:48;;;;;;;;;;;;;;;11.86;72.94;100644.59;7362461;19;19923;-64
2023/01/11 11:42:16;;;;;;;;;;;;;;;11.89;72.83;100648.72;7361029;19;20014;-64
2023/01/11 11:44:43;;;;;;;;;;;;;;;11.88;72.48;100647.91;7362188;19;19963;-65
2023/01/11 11:47:13;;;;;;;;;;;;;;;11.93;72.78;100644.78;7362276;19;20595;-65
2023/01/11 11:49:41;;;;;;;;;;;;;;;11.95;73.17;100640.16;7355494;19;19926;-65
2023/01/11 11:52:12;;;;;;;;;;;;;;;11.95;71.42;100630.44;7360601;19;20019;-65
2023/01/11 11:54:42;;;;;;;;;;;;;;;11.98;71.85;100626.66;7359130;19;20300;-64
2023/01/11 11:57:14;;;;;;;;;;;;;;;11.94;70.76;100628.78;7363068;19;19934;-64
2023/01/11 11:59:46;;;;;;;;;;;;;;;11.97;70.98;100617.09;7363398;19;19927;-64
2023/01/11 12:02:20;;;;;;;;;;;;;;;11.97;70.72;100630.28;7361619;19;19975;-63
2023/01/11 12:04:48;;;;;;;;;;;;;;;12.00;70.86;100616.75;7357066;19;19923;-64
2023/01/11 12:07:21;;;;;;;;;;;;;;;12.07;71.79;100596.63;7353790;19;19927;-64
2023/01/11 12:09:54;;;;;;;;;;;;;;;12.10;70.59;100606.84;7343882;19;19926;-65
2023/01/11 12:12:22;;;;;;;;;;;;;;;12.14;71.28;100607.34;7349735;19;19918;-64
2023/01/11 12:15:04;;;;;;;;;;;;;;;12.21;71.30;100593.28;7362006;19;19930;-64
2023/01/11 12:17:31;;;;;;;;;;;;;;;12.26;70.55;100590.16;7358510;19;20429;-64
2023/01/11 12:19:58;;;;;;;;;;;;;;;12.26;69.47;100583.06;7360692;19;20007;-63
2023/01/11 12:22:26;;;;;;;;;;;;;;;12.29;69.51;100576.63;7357080;19;20276;-63
2023/01/11 12:25:03;;;;;;;;;;;;;;;12.31;69.44;100579.91;7359035;19;20299;-65
2023/01/11 12:27:39;;;;;;;;;;;;;;;12.36;70.87;100582.84;7359863;19;19973;-64
2023/01/11 12:30:07;;;;;;;;;;;;;;;12.44;69.69;100569.66;7363036;19;19927;-64
2023/01/11 12:32:34;;;;;;;;;;;;;;;12.54;69.44;100565.00;7362934;19;21045;-65
2023/01/11 12:35:11;;;;;;;;;;;;;;;12.56;68.26;100562.16;7362853;19;19927;-65
2023/01/11 12:37:47;;;;;;;;;;;;;;;12.54;68.94;100550.97;7356623;19;19910;-64
2023/01/11 12:40:14;;;;;;;;;;;;;;;12.54;69.00;100554.44;7356109;19;20344;-64
2023/01/11 12:42:49;;;;;;;;;;;;;;;12.53;67.91;100544.88;7343365;19;20776;-64
2023/01/11 12:45:25;;;;;;;;;;;;;;;12.55;68.04;100548.13;7353310;19;19923;-64
2023/01/11 12:48:01;;;;;;;;;;;;;;;12.57;68.65;100540.88;7333559;19;19926;-64
2023/01/11 12:50:40;;;;;;;;;;;;;;;12.60;69.38;100531.78;7355794;19;19918;-64
2023/01/11 12:53:16;;;;;;;;;;;;;;;12.59;68.40;100536.25;7354150;19;19919;-64
2023/01/11 12:55:49;;;;;;;;;;;;;;;12.59;69.18;100536.25;7357365;19;20256;-64
2023/01/11 12:58:23;;;;;;;;;;;;;;;12.58;70.28;100523.22;7354291;19;19918;-65
2023/01/11 13:00:58;;;;;;;;;;;;;;;12.56;69.87;100530.47;7357034;19;20349;-64
2023/01/11 13:03:32;;;;;;;;;;;;;;;12.55;69.40;100521.75;7357834;19;19930;-66
2023/01/11 13:06:05;;;;;;;;;;;;;;;12.53;68.74;100520.28;7355608;19;19922;-64
2023/01/11 13:08:43;;;;;;;;;;;;;;;12.49;69.51;100524.28;7357194;19;19956;-64
2023/01/11 13:11:33;;;;;;;;;;;;;;;12.53;70.70;100521.13;7356494;19;19930;-63
2023/01/11 13:14:10;;;;;;;;;;;;;;;12.57;70.73;100501.28;7367622;19;20432;-64
2023/01/11 13:16:42;;;;;;;;;;;;;;;12.55;69.74;100502.44;7374349;19;19960;-64
2023/01/11 13:19:17;;;;;;;;;;;;;;;12.53;69.81;100505.28;7371031;19;19953;-64
2023/01/11 13:21:52;;;;;;;;;;;;;;;12.53;70.96;100496.53;7368703;19;19915;-65
2023/01/11 13:24:25;;;;;;;;;;;;;;;12.55;70.29;100510.34;7371421;19;19915;-66
2023/01/11 13:26:57;;;;;;;;;;;;;;;12.56;70.60;100504.09;7378795;19;20005;-64
2023/01/11 13:29:33;;;;;;;;;;;;;;;12.59;71.05;100496.66;7383160;19;19919;-64
2023/01/11 13:32:02;;;;;;;;;;;;;;;12.61;70.01;100507.84;7384126;19;20450;-65